createdAt,value
2018-07-04T00:06:41.868Z,0
2018-07-04T00:16:43.008Z,0
2018-07-04T00:26:41.714Z,0
2018-07-04T00:36:43.117Z,0
2018-07-04T00:46:42.166Z,0
2018-07-04T00:56:41.710Z,0
2018-07-04T01:06:41.647Z,0
2018-07-04T01:16:41.712Z,0
2018-07-04T01:26:41.634Z,0
2018-07-04T01:36:41.623Z,0
2018-07-04T01:46:41.715Z,0
2018-07-04T01:56:41.672Z,0
2018-07-04T02:06:41.586Z,0
2018-07-04T02:16:41.674Z,0
2018-07-04T02:26:41.653Z,0
2018-07-04T02:36:41.689Z,0
2018-07-04T02:46:41.646Z,0
2018-07-04T02:56:41.620Z,0
2018-07-04T03:06:41.631Z,5
2018-07-04T03:16:41.671Z,10
2018-07-04T03:26:41.555Z,10
2018-07-04T03:36:41.669Z,20
2018-07-04T03:46:41.617Z,35
2018-07-04T03:56:41.661Z,45
2018-07-04T04:06:41.665Z,55
2018-07-04T04:16:41.584Z,55
2018-07-04T04:26:41.632Z,65
2018-07-04T04:36:41.664Z,90
2018-07-04T04:46:41.680Z,110
2018-07-04T04:56:41.626Z,80
2018-07-04T05:06:41.619Z,100
2018-07-04T05:16:41.674Z,135
2018-07-04T05:26:41.682Z,195
2018-07-04T05:36:41.648Z,195
2018-07-04T05:46:41.673Z,270
2018-07-04T05:56:41.699Z,215
2018-07-04T06:06:41.722Z,260
2018-07-04T06:16:41.662Z,255
2018-07-04T06:26:41.620Z,230
2018-07-04T06:36:41.988Z,210
2018-07-04T06:46:41.641Z,210
2018-07-04T06:56:41.745Z,240
2018-07-04T07:06:41.650Z,250
2018-07-04T07:16:41.605Z,265
2018-07-04T07:26:41.713Z,280
2018-07-04T07:36:41.652Z,355
2018-07-04T07:46:41.712Z,325
2018-07-04T07:56:41.656Z,305
2018-07-04T08:06:41.627Z,280
2018-07-04T08:16:41.682Z,455
2018-07-04T08:26:41.662Z,425
2018-07-04T08:36:41.653Z,430
2018-07-04T08:46:41.675Z,365
2018-07-04T08:56:41.754Z,370
2018-07-04T09:06:41.737Z,290
2018-07-04T09:16:41.649Z,235
2018-07-04T09:26:41.786Z,225
2018-07-04T09:36:41.778Z,215
2018-07-04T09:46:41.712Z,205
2018-07-04T09:56:41.683Z,190
2018-07-04T10:06:41.728Z,215
2018-07-04T10:16:41.672Z,230
2018-07-04T10:26:41.848Z,205
2018-07-04T10:36:41.697Z,195
2018-07-04T10:46:41.846Z,205
2018-07-04T10:56:41.705Z,200
2018-07-04T11:06:41.801Z,195
2018-07-04T11:16:41.803Z,195
2018-07-04T11:26:41.728Z,185
2018-07-04T11:36:41.691Z,185
2018-07-04T11:46:41.724Z,170
2018-07-04T11:56:41.752Z,180
2018-07-04T12:06:41.734Z,200
2018-07-04T12:16:41.756Z,215
2018-07-04T12:26:41.734Z,180
2018-07-04T12:36:41.690Z,175
2018-07-04T12:46:41.721Z,195
2018-07-04T12:56:41.743Z,175
2018-07-04T13:06:41.722Z,190
2018-07-04T13:16:41.701Z,195
2018-07-04T13:26:41.707Z,180
2018-07-04T13:36:41.760Z,180
2018-07-04T13:46:41.878Z,180
2018-07-04T13:56:41.697Z,190
2018-07-04T14:06:41.721Z,195
2018-07-04T14:16:42.029Z,175
2018-07-04T14:26:41.999Z,180
2018-07-04T14:36:41.815Z,200
2018-07-04T14:46:41.838Z,190
2018-07-04T14:56:41.955Z,215
2018-07-04T15:06:41.998Z,165
2018-07-04T15:16:42.174Z,120
2018-07-04T15:26:42.247Z,145
2018-07-04T15:36:41.806Z,130
2018-07-04T15:46:41.823Z,140
2018-07-04T15:56:41.888Z,150
2018-07-04T16:06:45.121Z,180
2018-07-04T16:16:41.829Z,220
2018-07-04T16:26:42.020Z,180
2018-07-04T16:36:41.962Z,155
2018-07-04T16:46:42.932Z,165
2018-07-04T16:56:41.845Z,135
2018-07-04T17:06:41.996Z,120
2018-07-04T17:16:41.888Z,100
2018-07-04T17:26:48.917Z,75
2018-07-04T17:36:41.864Z,50
2018-07-04T17:46:42.624Z,40
2018-07-04T17:56:42.251Z,35
2018-07-04T18:06:41.900Z,35
2018-07-04T18:16:42.060Z,35
2018-07-04T18:26:41.938Z,35
2018-07-04T18:36:41.918Z,40
2018-07-04T18:46:42.394Z,40
2018-07-04T18:56:42.086Z,30
2018-07-04T19:06:41.866Z,25
2018-07-04T19:16:42.181Z,20
2018-07-04T19:26:41.963Z,15
2018-07-04T19:36:42.550Z,10
2018-07-04T19:46:45.583Z,5
2018-07-04T19:56:42.247Z,0
2018-07-04T20:06:42.078Z,0
2018-07-04T20:16:42.055Z,0
2018-07-04T20:26:42.407Z,0
2018-07-04T20:36:42.014Z,0
2018-07-04T20:46:41.955Z,0
2018-07-04T20:56:42.034Z,0
2018-07-04T21:06:42.076Z,0
2018-07-04T21:16:42.039Z,0
2018-07-04T21:26:42.025Z,0
2018-07-04T21:36:42.312Z,0
2018-07-04T21:46:42.210Z,0
2018-07-04T21:56:42.958Z,0
2018-07-04T22:06:42.515Z,0
2018-07-04T22:16:42.178Z,0
2018-07-04T22:26:42.062Z,0
2018-07-04T22:36:42.110Z,0
2018-07-04T22:46:42.067Z,0
2018-07-04T22:56:52.069Z,0
2018-07-04T23:06:50.697Z,0
2018-07-04T23:16:41.843Z,0
2018-07-04T23:26:41.941Z,0
2018-07-04T23:36:41.934Z,0
2018-07-04T23:46:41.898Z,0
2018-07-04T23:56:42.116Z,0
